sensor_id;sensor_type;location;lat;lon;timestamp;P1;durP1;ratioP1;P2;durP2;ratioP2
29774;SDS011;16676;51.202;6.774;2024-02-14T00:01:09;6.70;;;3.20;;
29774;SDS011;16676;51.202;6.774;2024-02-14T00:05:12;8.73;;;2.67;;
29774;SDS011;16676;51.202;6.774;2024-02-14T00:09:14;7.53;;;3.40;;
29774;SDS011;16676;51.202;6.774;2024-02-14T00:13:16;6.75;;;2.80;;
29774;SDS011;16676;51.202;6.774;2024-02-14T00:17:19;9.15;;;3.40;;
29774;SDS011;16676;51.202;6.774;2024-02-14T00:21:23;7.13;;;3.28;;
29774;SDS011;16676;51.202;6.774;2024-02-14T00:25:25;5.40;;;3.05;;
29774;SDS011;16676;51.202;6.774;2024-02-14T00:29:27;8.77;;;3.05;;
29774;SDS011;16676;51.202;6.774;2024-02-14T00:33:29;7.82;;;3.38;;
29774;SDS011;16676;51.202;6.774;2024-02-14T00:37:32;6.95;;;2.60;;
29774;SDS011;16676;51.202;6.774;2024-02-14T00:41:34;5.85;;;2.85;;
29774;SDS011;16676;51.202;6.774;2024-02-14T00:45:36;5.50;;;2.63;;
29774;SDS011;16676;51.202;6.774;2024-02-14T00:49:39;5.47;;;2.63;;
29774;SDS011;16676;51.202;6.774;2024-02-14T00:53:42;6.93;;;2.80;;
29774;SDS011;16676;51.202;6.774;2024-02-14T00:57:44;7.40;;;3.28;;
29774;SDS011;16676;51.202;6.774;2024-02-14T01:01:46;5.55;;;2.65;;
29774;SDS011;16676;51.202;6.774;2024-02-14T01:05:48;5.75;;;2.30;;
29774;SDS011;16676;51.202;6.774;2024-02-14T01:09:51;5.72;;;2.65;;
29774;SDS011;16676;51.202;6.774;2024-02-14T01:13:53;7.35;;;3.33;;
29774;SDS011;16676;51.202;6.774;2024-02-14T01:17:55;5.18;;;2.75;;
29774;SDS011;16676;51.202;6.774;2024-02-14T01:21:57;5.93;;;2.70;;
29774;SDS011;16676;51.202;6.774;2024-02-14T01:26:00;6.05;;;2.55;;
29774;SDS011;16676;51.202;6.774;2024-02-14T01:30:02;6.35;;;2.72;;
29774;SDS011;16676;51.202;6.774;2024-02-14T01:34:05;6.60;;;2.65;;
29774;SDS011;16676;51.202;6.774;2024-02-14T01:38:07;5.32;;;2.75;;
29774;SDS011;16676;51.202;6.774;2024-02-14T01:42:10;5.80;;;2.47;;
29774;SDS011;16676;51.202;6.774;2024-02-14T01:46:12;3.67;;;2.17;;
29774;SDS011;16676;51.202;6.774;2024-02-14T01:50:14;5.10;;;2.40;;
29774;SDS011;16676;51.202;6.774;2024-02-14T01:54:18;3.33;;;2.10;;
29774;SDS011;16676;51.202;6.774;2024-02-14T01:58:22;6.10;;;2.53;;
29774;SDS011;16676;51.202;6.774;2024-02-14T02:02:24;4.93;;;2.70;;
29774;SDS011;16676;51.202;6.774;2024-02-14T02:06:27;3.95;;;2.13;;
29774;SDS011;16676;51.202;6.774;2024-02-14T02:10:30;7.20;;;2.50;;
29774;SDS011;16676;51.202;6.774;2024-02-14T02:14:34;7.20;;;2.20;;
29774;SDS011;16676;51.202;6.774;2024-02-14T02:18:36;5.45;;;2.35;;
29774;SDS011;16676;51.202;6.774;2024-02-14T02:22:43;4.75;;;2.20;;
29774;SDS011;16676;51.202;6.774;2024-02-14T02:26:47;3.80;;;2.00;;
29774;SDS011;16676;51.202;6.774;2024-02-14T02:30:49;4.60;;;2.05;;
29774;SDS011;16676;51.202;6.774;2024-02-14T02:34:53;4.88;;;2.20;;
29774;SDS011;16676;51.202;6.774;2024-02-14T02:38:57;3.58;;;1.73;;
29774;SDS011;16676;51.202;6.774;2024-02-14T02:43:00;4.55;;;2.20;;
29774;SDS011;16676;51.202;6.774;2024-02-14T02:47:03;4.32;;;2.13;;
29774;SDS011;16676;51.202;6.774;2024-02-14T02:51:05;4.28;;;1.83;;
29774;SDS011;16676;51.202;6.774;2024-02-14T02:55:08;4.95;;;2.30;;
29774;SDS011;16676;51.202;6.774;2024-02-14T02:59:10;5.22;;;2.45;;
29774;SDS011;16676;51.202;6.774;2024-02-14T03:03:13;5.38;;;2.15;;
29774;SDS011;16676;51.202;6.774;2024-02-14T03:07:16;5.47;;;2.55;;
29774;SDS011;16676;51.202;6.774;2024-02-14T03:11:21;4.53;;;2.20;;
29774;SDS011;16676;51.202;6.774;2024-02-14T03:15:23;6.13;;;2.10;;
29774;SDS011;16676;51.202;6.774;2024-02-14T03:19:25;3.42;;;1.70;;
29774;SDS011;16676;51.202;6.774;2024-02-14T03:23:28;3.55;;;1.98;;
29774;SDS011;16676;51.202;6.774;2024-02-14T03:27:31;3.00;;;1.80;;
29774;SDS011;16676;51.202;6.774;2024-02-14T03:31:35;4.43;;;2.03;;
29774;SDS011;16676;51.202;6.774;2024-02-14T03:35:37;6.00;;;2.00;;
29774;SDS011;16676;51.202;6.774;2024-02-14T03:39:39;4.18;;;1.70;;
29774;SDS011;16676;51.202;6.774;2024-02-14T03:43:42;5.03;;;1.80;;
29774;SDS011;16676;51.202;6.774;2024-02-14T03:47:44;3.67;;;1.55;;
29774;SDS011;16676;51.202;6.774;2024-02-14T03:51:45;3.63;;;1.95;;
29774;SDS011;16676;51.202;6.774;2024-02-14T03:55:49;2.78;;;1.77;;
29774;SDS011;16676;51.202;6.774;2024-02-14T03:59:55;2.88;;;1.55;;
29774;SDS011;16676;51.202;6.774;2024-02-14T04:03:58;2.67;;;1.48;;
29774;SDS011;16676;51.202;6.774;2024-02-14T04:08:00;3.35;;;1.50;;
29774;SDS011;16676;51.202;6.774;2024-02-14T04:12:03;3.13;;;1.52;;
29774;SDS011;16676;51.202;6.774;2024-02-14T04:16:07;3.22;;;1.77;;
29774;SDS011;16676;51.202;6.774;2024-02-14T04:20:09;3.60;;;1.83;;
29774;SDS011;16676;51.202;6.774;2024-02-14T04:24:11;5.03;;;1.90;;
29774;SDS011;16676;51.202;6.774;2024-02-14T04:28:13;2.58;;;1.50;;
29774;SDS011;16676;51.202;6.774;2024-02-14T04:32:17;4.28;;;1.63;;
29774;SDS011;16676;51.202;6.774;2024-02-14T04:36:19;3.80;;;1.80;;
29774;SDS011;16676;51.202;6.774;2024-02-14T04:40:23;3.67;;;1.63;;
29774;SDS011;16676;51.202;6.774;2024-02-14T04:44:25;3.72;;;1.63;;
29774;SDS011;16676;51.202;6.774;2024-02-14T04:48:28;3.72;;;1.77;;
29774;SDS011;16676;51.202;6.774;2024-02-14T04:52:30;3.33;;;1.70;;
29774;SDS011;16676;51.202;6.774;2024-02-14T04:56:32;4.05;;;1.70;;
29774;SDS011;16676;51.202;6.774;2024-02-14T05:00:33;3.35;;;1.50;;
29774;SDS011;16676;51.202;6.774;2024-02-14T05:04:37;3.30;;;1.40;;
29774;SDS011;16676;51.202;6.774;2024-02-14T05:08:39;5.25;;;1.70;;
29774;SDS011;16676;51.202;6.774;2024-02-14T05:12:41;2.88;;;1.33;;
29774;SDS011;16676;51.202;6.774;2024-02-14T05:16:43;2.97;;;1.70;;
29774;SDS011;16676;51.202;6.774;2024-02-14T05:20:46;3.35;;;1.70;;
29774;SDS011;16676;51.202;6.774;2024-02-14T05:24:48;3.13;;;1.50;;
29774;SDS011;16676;51.202;6.774;2024-02-14T05:28:50;2.92;;;1.50;;
29774;SDS011;16676;51.202;6.774;2024-02-14T05:32:52;2.33;;;1.27;;
29774;SDS011;16676;51.202;6.774;2024-02-14T05:36:55;2.75;;;1.10;;
29774;SDS011;16676;51.202;6.774;2024-02-14T05:40:57;3.78;;;1.58;;
29774;SDS011;16676;51.202;6.774;2024-02-14T05:44:59;10.45;;;1.95;;
29774;SDS011;16676;51.202;6.774;2024-02-14T05:49:03;6.45;;;1.60;;
29774;SDS011;16676;51.202;6.774;2024-02-14T05:53:07;8.95;;;2.13;;
29774;SDS011;16676;51.202;6.774;2024-02-14T05:57:09;5.60;;;1.73;;
29774;SDS011;16676;51.202;6.774;2024-02-14T06:01:11;5.25;;;1.52;;
29774;SDS011;16676;51.202;6.774;2024-02-14T06:05:13;8.40;;;1.75;;
29774;SDS011;16676;51.202;6.774;2024-02-14T06:09:17;5.95;;;1.60;;
29774;SDS011;16676;51.202;6.774;2024-02-14T06:13:19;9.48;;;1.90;;
29774;SDS011;16676;51.202;6.774;2024-02-14T06:17:20;9.25;;;1.60;;
29774;SDS011;16676;51.202;6.774;2024-02-14T06:21:22;7.07;;;1.83;;
29774;SDS011;16676;51.202;6.774;2024-02-14T06:25:27;5.75;;;1.55;;
29774;SDS011;16676;51.202;6.774;2024-02-14T06:29:29;3.22;;;1.50;;
29774;SDS011;16676;51.202;6.774;2024-02-14T06:33:30;5.03;;;1.30;;
29774;SDS011;16676;51.202;6.774;2024-02-14T06:37:32;3.80;;;1.80;;
29774;SDS011;16676;51.202;6.774;2024-02-14T06:41:36;3.15;;;1.35;;
29774;SDS011;16676;51.202;6.774;2024-02-14T06:45:37;5.25;;;1.63;;
29774;SDS011;16676;51.202;6.774;2024-02-14T06:49:39;4.75;;;1.48;;
29774;SDS011;16676;51.202;6.774;2024-02-14T06:53:41;4.75;;;1.45;;
29774;SDS011;16676;51.202;6.774;2024-02-14T06:57:45;2.80;;;1.40;;
29774;SDS011;16676;51.202;6.774;2024-02-14T07:01:46;3.38;;;1.30;;
29774;SDS011;16676;51.202;6.774;2024-02-14T07:05:48;2.63;;;1.48;;
29774;SDS011;16676;51.202;6.774;2024-02-14T07:09:51;4.13;;;1.40;;
29774;SDS011;16676;51.202;6.774;2024-02-14T07:13:54;2.53;;;0.98;;
29774;SDS011;16676;51.202;6.774;2024-02-14T07:17:57;3.40;;;1.15;;
29774;SDS011;16676;51.202;6.774;2024-02-14T07:21:59;2.95;;;1.27;;
29774;SDS011;16676;51.202;6.774;2024-02-14T07:26:01;3.33;;;0.90;;
29774;SDS011;16676;51.202;6.774;2024-02-14T07:30:05;2.25;;;1.15;;
29774;SDS011;16676;51.202;6.774;2024-02-14T07:34:07;3.97;;;1.00;;
29774;SDS011;16676;51.202;6.774;2024-02-14T07:38:09;2.00;;;0.80;;
29774;SDS011;16676;51.202;6.774;2024-02-14T07:42:11;2.55;;;0.77;;
29774;SDS011;16676;51.202;6.774;2024-02-14T07:46:17;2.25;;;0.88;;
29774;SDS011;16676;51.202;6.774;2024-02-14T07:50:19;2.22;;;1.05;;
29774;SDS011;16676;51.202;6.774;2024-02-14T07:54:21;3.40;;;0.73;;
29774;SDS011;16676;51.202;6.774;2024-02-14T07:58:23;1.88;;;0.75;;
29774;SDS011;16676;51.202;6.774;2024-02-14T08:02:26;3.15;;;0.93;;
29774;SDS011;16676;51.202;6.774;2024-02-14T08:06:29;1.83;;;0.63;;
29774;SDS011;16676;51.202;6.774;2024-02-14T08:10:31;2.10;;;0.90;;
29774;SDS011;16676;51.202;6.774;2024-02-14T08:14:33;1.45;;;0.70;;
29774;SDS011;16676;51.202;6.774;2024-02-14T08:18:37;2.30;;;0.80;;
29774;SDS011;16676;51.202;6.774;2024-02-14T08:22:40;2.63;;;0.98;;
29774;SDS011;16676;51.202;6.774;2024-02-14T08:26:41;1.58;;;0.70;;
29774;SDS011;16676;51.202;6.774;2024-02-14T08:30:44;2.70;;;0.70;;
29774;SDS011;16676;51.202;6.774;2024-02-14T08:34:47;1.50;;;0.75;;
29774;SDS011;16676;51.202;6.774;2024-02-14T08:38:50;2.17;;;0.77;;
29774;SDS011;16676;51.202;6.774;2024-02-14T08:42:52;3.72;;;0.50;;
29774;SDS011;16676;51.202;6.774;2024-02-14T08:46:54;0.85;;;0.52;;
29774;SDS011;16676;51.202;6.774;2024-02-14T08:50:57;1.50;;;0.60;;
29774;SDS011;16676;51.202;6.774;2024-02-14T08:55:00;3.00;;;0.60;;
29774;SDS011;16676;51.202;6.774;2024-02-14T08:59:03;1.90;;;0.60;;
29774;SDS011;16676;51.202;6.774;2024-02-14T09:03:07;2.17;;;0.80;;
29774;SDS011;16676;51.202;6.774;2024-02-14T09:07:10;4.32;;;0.95;;
29774;SDS011;16676;51.202;6.774;2024-02-14T09:11:13;1.45;;;0.70;;
29774;SDS011;16676;51.202;6.774;2024-02-14T09:15:15;2.08;;;0.60;;
29774;SDS011;16676;51.202;6.774;2024-02-14T09:19:17;1.13;;;0.50;;
29774;SDS011;16676;51.202;6.774;2024-02-14T09:23:21;1.17;;;0.30;;
29774;SDS011;16676;51.202;6.774;2024-02-14T09:27:23;3.08;;;0.68;;
29774;SDS011;16676;51.202;6.774;2024-02-14T09:31:25;3.10;;;0.70;;
29774;SDS011;16676;51.202;6.774;2024-02-14T09:35:27;0.85;;;0.50;;
29774;SDS011;16676;51.202;6.774;2024-02-14T09:39:30;0.98;;;0.60;;
29774;SDS011;16676;51.202;6.774;2024-02-14T09:43:33;0.80;;;0.50;;
29774;SDS011;16676;51.202;6.774;2024-02-14T09:47:39;3.43;;;0.70;;
29774;SDS011;16676;51.202;6.774;2024-02-14T09:51:42;1.65;;;0.63;;
29774;SDS011;16676;51.202;6.774;2024-02-14T09:55:47;0.60;;;0.40;;
29774;SDS011;16676;51.202;6.774;2024-02-14T09:59:50;1.10;;;0.50;;
29774;SDS011;16676;51.202;6.774;2024-02-14T10:03:53;3.33;;;0.60;;
29774;SDS011;16676;51.202;6.774;2024-02-14T10:07:56;2.13;;;0.75;;
29774;SDS011;16676;51.202;6.774;2024-02-14T10:12:00;1.20;;;0.70;;
29774;SDS011;16676;51.202;6.774;2024-02-14T10:16:02;1.08;;;0.60;;
29774;SDS011;16676;51.202;6.774;2024-02-14T10:20:04;0.85;;;0.40;;
29774;SDS011;16676;51.202;6.774;2024-02-14T10:24:07;1.20;;;0.60;;
29774;SDS011;16676;51.202;6.774;2024-02-14T10:28:12;0.75;;;0.40;;
29774;SDS011;16676;51.202;6.774;2024-02-14T10:32:14;1.30;;;0.50;;
29774;SDS011;16676;51.202;6.774;2024-02-14T10:36:17;1.65;;;0.63;;
29774;SDS011;16676;51.202;6.774;2024-02-14T10:40:20;2.28;;;0.50;;
29774;SDS011;16676;51.202;6.774;2024-02-14T10:44:23;1.02;;;0.40;;
29774;SDS011;16676;51.202;6.774;2024-02-14T10:48:25;2.25;;;0.65;;
29774;SDS011;16676;51.202;6.774;2024-02-14T10:52:34;0.57;;;0.30;;
29774;SDS011;16676;51.202;6.774;2024-02-14T10:56:38;3.03;;;0.47;;
29774;SDS011;16676;51.202;6.774;2024-02-14T11:00:43;0.85;;;0.30;;
29774;SDS011;16676;51.202;6.774;2024-02-14T11:04:45;1.45;;;0.52;;
29774;SDS011;16676;51.202;6.774;2024-02-14T11:08:55;1.05;;;0.50;;
29774;SDS011;16676;51.202;6.774;2024-02-14T11:12:57;1.08;;;0.50;;
29774;SDS011;16676;51.202;6.774;2024-02-14T11:17:03;1.02;;;0.50;;
29774;SDS011;16676;51.202;6.774;2024-02-14T11:25:17;1.45;;;0.40;;
29774;SDS011;16676;51.202;6.774;2024-02-14T11:29:20;2.67;;;0.43;;
29774;SDS011;16676;51.202;6.774;2024-02-14T11:33:24;1.60;;;0.60;;
29774;SDS011;16676;51.202;6.774;2024-02-14T11:37:29;0.90;;;0.50;;
29774;SDS011;16676;51.202;6.774;2024-02-14T11:41:32;1.67;;;0.55;;
29774;SDS011;16676;51.202;6.774;2024-02-14T11:45:35;1.23;;;0.60;;
29774;SDS011;16676;51.202;6.774;2024-02-14T11:49:40;1.58;;;0.55;;
29774;SDS011;16676;51.202;6.774;2024-02-14T11:53:43;2.35;;;0.77;;
29774;SDS011;16676;51.202;6.774;2024-02-14T11:57:44;1.27;;;0.63;;
29774;SDS011;16676;51.202;6.774;2024-02-14T12:01:48;0.88;;;0.47;;
29774;SDS011;16676;51.202;6.774;2024-02-14T12:05:53;0.50;;;0.30;;
29774;SDS011;16676;51.202;6.774;2024-02-14T12:09:56;0.88;;;0.43;;
29774;SDS011;16676;51.202;6.774;2024-02-14T12:14:00;2.03;;;0.50;;
29774;SDS011;16676;51.202;6.774;2024-02-14T12:18:04;1.85;;;0.45;;
29774;SDS011;16676;51.202;6.774;2024-02-14T12:22:10;1.63;;;0.50;;
29774;SDS011;16676;51.202;6.774;2024-02-14T12:26:17;1.52;;;0.60;;
29774;SDS011;16676;51.202;6.774;2024-02-14T12:30:20;1.13;;;0.50;;
29774;SDS011;16676;51.202;6.774;2024-02-14T12:34:22;0.38;;;0.38;;
29774;SDS011;16676;51.202;6.774;2024-02-14T12:38:25;1.73;;;0.63;;
29774;SDS011;16676;51.202;6.774;2024-02-14T12:42:27;1.35;;;0.70;;
29774;SDS011;16676;51.202;6.774;2024-02-14T12:46:29;2.20;;;0.50;;
29774;SDS011;16676;51.202;6.774;2024-02-14T12:50:31;0.93;;;0.50;;
29774;SDS011;16676;51.202;6.774;2024-02-14T12:54:34;0.90;;;0.50;;
29774;SDS011;16676;51.202;6.774;2024-02-14T12:58:36;1.48;;;0.50;;
29774;SDS011;16676;51.202;6.774;2024-02-14T13:02:38;0.75;;;0.40;;
29774;SDS011;16676;51.202;6.774;2024-02-14T13:06:40;1.02;;;0.40;;
29774;SDS011;16676;51.202;6.774;2024-02-14T13:10:43;1.02;;;0.40;;
29774;SDS011;16676;51.202;6.774;2024-02-14T13:14:45;0.88;;;0.30;;
29774;SDS011;16676;51.202;6.774;2024-02-14T13:18:47;0.55;;;0.40;;
29774;SDS011;16676;51.202;6.774;2024-02-14T13:22:49;0.85;;;0.30;;
29774;SDS011;16676;51.202;6.774;2024-02-14T13:26:53;2.13;;;0.52;;
29774;SDS011;16676;51.202;6.774;2024-02-14T13:30:57;0.40;;;0.35;;
29774;SDS011;16676;51.202;6.774;2024-02-14T13:34:59;0.63;;;0.50;;
29774;SDS011;16676;51.202;6.774;2024-02-14T13:39:01;1.40;;;0.40;;
29774;SDS011;16676;51.202;6.774;2024-02-14T13:43:05;0.65;;;0.38;;
29774;SDS011;16676;51.202;6.774;2024-02-14T13:47:07;0.95;;;0.50;;
29774;SDS011;16676;51.202;6.774;2024-02-14T13:51:09;0.82;;;0.30;;
29774;SDS011;16676;51.202;6.774;2024-02-14T13:55:11;1.90;;;0.68;;
29774;SDS011;16676;51.202;6.774;2024-02-14T13:59:14;0.65;;;0.32;;
29774;SDS011;16676;51.202;6.774;2024-02-14T14:03:18;0.90;;;0.32;;
29774;SDS011;16676;51.202;6.774;2024-02-14T14:07:20;0.77;;;0.47;;
29774;SDS011;16676;51.202;6.774;2024-02-14T14:11:23;0.65;;;0.40;;
29774;SDS011;16676;51.202;6.774;2024-02-14T14:15:26;1.13;;;0.50;;
29774;SDS011;16676;51.202;6.774;2024-02-14T14:19:29;0.75;;;0.40;;
29774;SDS011;16676;51.202;6.774;2024-02-14T14:23:31;0.70;;;0.35;;
29774;SDS011;16676;51.202;6.774;2024-02-14T14:27:33;0.60;;;0.30;;
29774;SDS011;16676;51.202;6.774;2024-02-14T14:31:37;0.55;;;0.30;;
29774;SDS011;16676;51.202;6.774;2024-02-14T14:35:39;1.98;;;0.77;;
29774;SDS011;16676;51.202;6.774;2024-02-14T14:39:40;0.40;;;0.30;;
29774;SDS011;16676;51.202;6.774;2024-02-14T14:43:44;1.50;;;0.47;;
29774;SDS011;16676;51.202;6.774;2024-02-14T14:47:50;0.65;;;0.30;;
29774;SDS011;16676;51.202;6.774;2024-02-14T14:51:53;0.40;;;0.30;;
29774;SDS011;16676;51.202;6.774;2024-02-14T14:55:57;0.80;;;0.40;;
29774;SDS011;16676;51.202;6.774;2024-02-14T15:00:00;0.65;;;0.40;;
29774;SDS011;16676;51.202;6.774;2024-02-14T15:04:03;1.33;;;0.50;;
29774;SDS011;16676;51.202;6.774;2024-02-14T15:08:07;2.38;;;0.38;;
29774;SDS011;16676;51.202;6.774;2024-02-14T15:12:09;0.52;;;0.32;;
29774;SDS011;16676;51.202;6.774;2024-02-14T15:16:11;0.95;;;0.38;;
29774;SDS011;16676;51.202;6.774;2024-02-14T15:20:15;1.13;;;0.63;;
29774;SDS011;16676;51.202;6.774;2024-02-14T15:24:17;0.95;;;0.30;;
29774;SDS011;16676;51.202;6.774;2024-02-14T15:28:20;1.35;;;0.57;;
29774;SDS011;16676;51.202;6.774;2024-02-14T15:32:26;0.22;;;0.20;;
29774;SDS011;16676;51.202;6.774;2024-02-14T15:36:47;0.77;;;0.50;;
29774;SDS011;16676;51.202;6.774;2024-02-14T15:40:49;0.70;;;0.28;;
29774;SDS011;16676;51.202;6.774;2024-02-14T15:44:55;0.43;;;0.20;;
29774;SDS011;16676;51.202;6.774;2024-02-14T15:48:57;0.75;;;0.30;;
29774;SDS011;16676;51.202;6.774;2024-02-14T15:53:00;0.70;;;0.20;;
29774;SDS011;16676;51.202;6.774;2024-02-14T15:57:02;0.25;;;0.20;;
29774;SDS011;16676;51.202;6.774;2024-02-14T16:01:04;0.43;;;0.35;;
29774;SDS011;16676;51.202;6.774;2024-02-14T16:05:07;1.05;;;0.30;;
29774;SDS011;16676;51.202;6.774;2024-02-14T16:09:11;0.80;;;0.40;;
29774;SDS011;16676;51.202;6.774;2024-02-14T16:13:13;0.35;;;0.30;;
29774;SDS011;16676;51.202;6.774;2024-02-14T16:17:15;1.25;;;0.40;;
29774;SDS011;16676;51.202;6.774;2024-02-14T16:21:17;1.08;;;0.30;;
29774;SDS011;16676;51.202;6.774;2024-02-14T16:25:20;0.47;;;0.30;;
29774;SDS011;16676;51.202;6.774;2024-02-14T16:29:22;0.68;;;0.50;;
29774;SDS011;16676;51.202;6.774;2024-02-14T16:33:24;0.77;;;0.28;;
29774;SDS011;16676;51.202;6.774;2024-02-14T16:37:26;1.52;;;0.55;;
29774;SDS011;16676;51.202;6.774;2024-02-14T16:41:31;5.45;;;0.35;;
29774;SDS011;16676;51.202;6.774;2024-02-14T16:45:32;3.40;;;0.77;;
29774;SDS011;16676;51.202;6.774;2024-02-14T16:49:34;4.10;;;0.75;;
29774;SDS011;16676;51.202;6.774;2024-02-14T16:53:36;2.80;;;0.95;;
29774;SDS011;16676;51.202;6.774;2024-02-14T16:57:40;2.67;;;0.40;;
29774;SDS011;16676;51.202;6.774;2024-02-14T17:01:42;2.33;;;0.52;;
29774;SDS011;16676;51.202;6.774;2024-02-14T17:05:44;1.50;;;0.47;;
29774;SDS011;16676;51.202;6.774;2024-02-14T17:09:46;6.25;;;0.65;;
29774;SDS011;16676;51.202;6.774;2024-02-14T17:13:50;2.78;;;0.60;;
29774;SDS011;16676;51.202;6.774;2024-02-14T17:17:52;1.70;;;0.70;;
29774;SDS011;16676;51.202;6.774;2024-02-14T17:21:54;2.97;;;0.40;;
29774;SDS011;16676;51.202;6.774;2024-02-14T17:25:56;0.88;;;0.50;;
29774;SDS011;16676;51.202;6.774;2024-02-14T17:30:00;4.25;;;0.82;;
29774;SDS011;16676;51.202;6.774;2024-02-14T17:34:08;3.38;;;0.73;;
29774;SDS011;16676;51.202;6.774;2024-02-14T17:38:10;5.28;;;0.57;;
29774;SDS011;16676;51.202;6.774;2024-02-14T17:42:12;3.95;;;0.60;;
29774;SDS011;16676;51.202;6.774;2024-02-14T17:46:15;4.05;;;0.50;;
29774;SDS011;16676;51.202;6.774;2024-02-14T17:50:17;1.10;;;0.45;;
29774;SDS011;16676;51.202;6.774;2024-02-14T17:54:19;3.25;;;0.60;;
29774;SDS011;16676;51.202;6.774;2024-02-14T17:58:22;1.45;;;0.38;;
29774;SDS011;16676;51.202;6.774;2024-02-14T18:02:25;1.35;;;0.45;;
29774;SDS011;16676;51.202;6.774;2024-02-14T18:06:27;3.75;;;0.50;;
29774;SDS011;16676;51.202;6.774;2024-02-14T18:10:29;3.40;;;0.65;;
29774;SDS011;16676;51.202;6.774;2024-02-14T18:14:30;1.70;;;0.77;;
29774;SDS011;16676;51.202;6.774;2024-02-14T18:18:34;8.70;;;1.92;;
29774;SDS011;16676;51.202;6.774;2024-02-14T18:22:36;16.15;;;3.28;;
29774;SDS011;16676;51.202;6.774;2024-02-14T18:26:38;22.08;;;5.55;;
29774;SDS011;16676;51.202;6.774;2024-02-14T18:30:41;23.20;;;4.47;;
29774;SDS011;16676;51.202;6.774;2024-02-14T18:34:45;13.95;;;3.28;;
29774;SDS011;16676;51.202;6.774;2024-02-14T18:38:47;13.13;;;3.30;;
29774;SDS011;16676;51.202;6.774;2024-02-14T18:42:51;12.13;;;3.53;;
29774;SDS011;16676;51.202;6.774;2024-02-14T18:46:53;13.30;;;2.90;;
29774;SDS011;16676;51.202;6.774;2024-02-14T18:50:57;12.35;;;3.42;;
29774;SDS011;16676;51.202;6.774;2024-02-14T18:54:59;7.38;;;2.15;;
29774;SDS011;16676;51.202;6.774;2024-02-14T18:59:01;8.32;;;2.60;;
29774;SDS011;16676;51.202;6.774;2024-02-14T19:03:03;14.52;;;4.40;;
29774;SDS011;16676;51.202;6.774;2024-02-14T19:07:06;12.20;;;5.05;;
29774;SDS011;16676;51.202;6.774;2024-02-14T19:11:09;14.90;;;6.47;;
29774;SDS011;16676;51.202;6.774;2024-02-14T19:15:11;11.25;;;5.28;;
29774;SDS011;16676;51.202;6.774;2024-02-14T19:19:13;12.13;;;6.05;;
29774;SDS011;16676;51.202;6.774;2024-02-14T19:23:16;21.27;;;6.50;;
29774;SDS011;16676;51.202;6.774;2024-02-14T19:27:18;15.70;;;6.63;;
29774;SDS011;16676;51.202;6.774;2024-02-14T19:31:20;11.45;;;5.13;;
29774;SDS011;16676;51.202;6.774;2024-02-14T19:35:22;11.32;;;5.70;;
29774;SDS011;16676;51.202;6.774;2024-02-14T19:39:25;11.77;;;5.45;;
29774;SDS011;16676;51.202;6.774;2024-02-14T19:43:27;12.77;;;4.82;;
29774;SDS011;16676;51.202;6.774;2024-02-14T19:47:29;10.77;;;4.53;;
29774;SDS011;16676;51.202;6.774;2024-02-14T19:51:31;12.10;;;4.78;;
29774;SDS011;16676;51.202;6.774;2024-02-14T19:55:35;8.15;;;3.80;;
29774;SDS011;16676;51.202;6.774;2024-02-14T19:59:37;9.57;;;4.18;;
29774;SDS011;16676;51.202;6.774;2024-02-14T20:03:40;8.65;;;3.47;;
29774;SDS011;16676;51.202;6.774;2024-02-14T20:07:45;6.15;;;3.42;;
29774;SDS011;16676;51.202;6.774;2024-02-14T20:11:49;7.68;;;3.63;;
29774;SDS011;16676;51.202;6.774;2024-02-14T20:15:50;7.55;;;3.15;;
29774;SDS011;16676;51.202;6.774;2024-02-14T20:19:53;6.38;;;2.92;;
29774;SDS011;16676;51.202;6.774;2024-02-14T20:23:54;7.47;;;2.97;;
29774;SDS011;16676;51.202;6.774;2024-02-14T20:27:59;5.65;;;2.97;;
29774;SDS011;16676;51.202;6.774;2024-02-14T20:32:01;7.90;;;2.85;;
29774;SDS011;16676;51.202;6.774;2024-02-14T20:36:03;5.90;;;2.35;;
29774;SDS011;16676;51.202;6.774;2024-02-14T20:40:07;6.13;;;2.60;;
29774;SDS011;16676;51.202;6.774;2024-02-14T20:44:11;6.80;;;2.53;;
29774;SDS011;16676;51.202;6.774;2024-02-14T20:48:13;5.55;;;2.17;;
29774;SDS011;16676;51.202;6.774;2024-02-14T20:52:15;6.57;;;2.45;;
29774;SDS011;16676;51.202;6.774;2024-02-14T20:56:17;4.60;;;2.00;;
29774;SDS011;16676;51.202;6.774;2024-02-14T21:00:20;10.65;;;2.80;;
29774;SDS011;16676;51.202;6.774;2024-02-14T21:04:22;7.80;;;2.45;;
29774;SDS011;16676;51.202;6.774;2024-02-14T21:08:24;16.30;;;2.90;;
29774;SDS011;16676;51.202;6.774;2024-02-14T21:12:26;16.23;;;3.25;;
29774;SDS011;16676;51.202;6.774;2024-02-14T21:16:30;11.73;;;2.40;;
29774;SDS011;16676;51.202;6.774;2024-02-14T21:20:32;14.23;;;2.83;;
29774;SDS011;16676;51.202;6.774;2024-02-14T21:24:35;13.98;;;2.70;;
29774;SDS011;16676;51.202;6.774;2024-02-14T21:28:37;7.38;;;2.55;;
29774;SDS011;16676;51.202;6.774;2024-02-14T21:32:41;5.35;;;2.15;;
29774;SDS011;16676;51.202;6.774;2024-02-14T21:36:43;8.82;;;2.53;;
29774;SDS011;16676;51.202;6.774;2024-02-14T21:40:46;7.72;;;2.40;;
29774;SDS011;16676;51.202;6.774;2024-02-14T21:44:49;9.75;;;2.50;;
29774;SDS011;16676;51.202;6.774;2024-02-14T21:48:52;7.70;;;2.28;;
29774;SDS011;16676;51.202;6.774;2024-02-14T21:52:55;12.80;;;2.40;;
29774;SDS011;16676;51.202;6.774;2024-02-14T21:56:58;9.00;;;2.20;;
29774;SDS011;16676;51.202;6.774;2024-02-14T22:01:00;9.63;;;2.40;;
29774;SDS011;16676;51.202;6.774;2024-02-14T22:05:04;4.68;;;2.00;;
29774;SDS011;16676;51.202;6.774;2024-02-14T22:09:06;7.43;;;2.45;;
29774;SDS011;16676;51.202;6.774;2024-02-14T22:13:08;8.15;;;1.88;;
29774;SDS011;16676;51.202;6.774;2024-02-14T22:17:10;6.95;;;2.40;;
29774;SDS011;16676;51.202;6.774;2024-02-14T22:21:17;6.07;;;1.98;;
29774;SDS011;16676;51.202;6.774;2024-02-14T22:25:19;5.88;;;2.30;;
29774;SDS011;16676;51.202;6.774;2024-02-14T22:29:21;5.20;;;2.00;;
29774;SDS011;16676;51.202;6.774;2024-02-14T22:33:22;6.72;;;2.10;;
29774;SDS011;16676;51.202;6.774;2024-02-14T22:37:26;4.40;;;1.90;;
29774;SDS011;16676;51.202;6.774;2024-02-14T22:41:27;5.28;;;1.70;;
29774;SDS011;16676;51.202;6.774;2024-02-14T22:45:32;3.35;;;1.52;;
29774;SDS011;16676;51.202;6.774;2024-02-14T22:49:34;6.75;;;2.28;;
29774;SDS011;16676;51.202;6.774;2024-02-14T22:53:38;7.55;;;2.13;;
29774;SDS011;16676;51.202;6.774;2024-02-14T22:57:40;6.03;;;1.73;;
29774;SDS011;16676;51.202;6.774;2024-02-14T23:01:43;4.03;;;1.70;;
29774;SDS011;16676;51.202;6.774;2024-02-14T23:05:45;5.47;;;1.80;;
29774;SDS011;16676;51.202;6.774;2024-02-14T23:09:48;4.43;;;1.70;;
29774;SDS011;16676;51.202;6.774;2024-02-14T23:13:50;6.53;;;1.88;;
29774;SDS011;16676;51.202;6.774;2024-02-14T23:17:52;4.40;;;1.88;;
29774;SDS011;16676;51.202;6.774;2024-02-14T23:21:54;5.10;;;1.92;;
29774;SDS011;16676;51.202;6.774;2024-02-14T23:25:57;3.80;;;1.55;;
29774;SDS011;16676;51.202;6.774;2024-02-14T23:30:00;4.35;;;1.63;;
29774;SDS011;16676;51.202;6.774;2024-02-14T23:34:02;4.00;;;1.63;;
29774;SDS011;16676;51.202;6.774;2024-02-14T23:38:04;3.85;;;1.50;;
29774;SDS011;16676;51.202;6.774;2024-02-14T23:42:09;5.55;;;1.75;;
29774;SDS011;16676;51.202;6.774;2024-02-14T23:46:11;5.68;;;1.90;;
29774;SDS011;16676;51.202;6.774;2024-02-14T23:50:13;4.20;;;1.63;;
29774;SDS011;16676;51.202;6.774;2024-02-14T23:54:16;3.13;;;1.50;;
29774;SDS011;16676;51.202;6.774;2024-02-14T23:58:20;3.47;;;1.65;;
